Time;durP1;ratioP1;P1;durP2;ratioP2;P2;SDS_P1;SDS_P2;PMS_P1;PMS_P2;Temp;Humidity;BMP_temperature;BMP_pressure;BME280_temperature;BME280_humidity;BME280_pressure;Samples;Min_cycle;Max_cycle;Signal;HPM_P1;HPM_P2
2021/03/12 00:00:00;;;;;;;2.15;1.15;;;16.60;46.90;;;;;;5102506;28;20016;-74
2021/03/12 00:02:27;;;;;;;2.92;1.45;;;16.20;48.20;;;;;;5093871;28;20028;-73
2021/03/12 00:04:53;;;;;;;2.45;1.50;;;16.10;48.50;;;;;;5103396;28;20058;-74
2021/03/12 00:07:19;;;;;;;4.13;1.40;;;15.70;49.00;;;;;;5105579;28;20031;-75
2021/03/12 00:09:46;;;;;;;5.25;1.27;;;15.80;48.70;;;;;;5106323;27;20365;-74
2021/03/12 00:12:13;;;;;;;5.97;1.60;;;15.60;49.40;;;;;;5105850;28;20015;-74
2021/03/12 00:14:39;;;;;;;4.93;1.45;;;15.70;49.60;;;;;;5104451;28;20031;-74
2021/03/12 00:17:06;;;;;;;5.50;1.75;;;15.70;49.70;;;;;;5105860;28;20031;-74
2021/03/12 00:19:32;;;;;;;6.63;1.55;;;15.60;48.90;;;;;;5105477;28;20023;-77
2021/03/12 00:21:59;;;;;;;5.68;1.52;;;15.50;49.80;;;;;;5105776;28;20106;-75
2021/03/12 00:24:25;;;;;;;2.55;1.98;;;15.40;50.00;;;;;;5105642;28;20019;-74
2021/03/12 00:26:53;;;;;;;3.03;1.33;;;15.30;50.00;;;;;;5105228;28;20019;-74
2021/03/12 00:29:20;;;;;;;2.60;1.45;;;15.30;49.50;;;;;;5106667;28;20111;-74
2021/03/12 00:31:46;;;;;;;3.67;1.45;;;15.20;50.80;;;;;;5105302;28;20464;-75
2021/03/12 00:34:12;;;;;;;1.75;1.30;;;15.20;51.00;;;;;;5103683;28;20030;-76
2021/03/12 00:36:39;;;;;;;5.45;2.45;;;15.60;48.10;;;;;;5106063;28;20023;-74
2021/03/12 00:39:05;;;;;;;3.20;1.52;;;15.70;47.40;;;;;;5105615;28;20032;-75
2021/03/12 00:41:32;;;;;;;5.13;1.60;;;15.40;47.80;;;;;;5105865;28;20051;-74
2021/03/12 00:43:58;;;;;;;4.25;1.45;;;15.40;48.00;;;;;;5095435;28;20050;-74
2021/03/12 00:46:25;;;;;;;2.85;1.40;;;15.10;49.60;;;;;;5099165;28;20032;-74
2021/03/12 00:48:51;;;;;;;2.75;1.58;;;15.10;49.50;;;;;;5098515;28;20032;-74
2021/03/12 00:51:18;;;;;;;5.70;1.73;;;14.70;50.10;;;;;;5101703;28;20368;-75
2021/03/12 00:53:44;;;;;;;4.18;1.98;;;14.70;50.50;;;;;;5101303;28;20030;-77
2021/03/12 00:56:11;;;;;;;3.10;2.25;;;15.00;50.00;;;;;;5102397;28;20373;-74
2021/03/12 00:58:37;;;;;;;3.10;1.67;;;15.20;49.30;;;;;;5105916;28;20028;-75
2021/03/12 01:01:04;;;;;;;10.65;2.70;;;14.80;50.60;;;;;;5096740;28;20054;-74
2021/03/12 01:03:30;;;;;;;4.47;1.35;;;14.80;50.00;;;;;;5104066;28;20024;-74
2021/03/12 01:05:56;;;;;;;5.95;1.50;;;14.40;50.90;;;;;;5097905;28;20750;-75
2021/03/12 01:08:23;;;;;;;2.63;1.73;;;14.20;51.60;;;;;;5101020;28;20114;-74
2021/03/12 01:10:49;;;;;;;4.72;1.60;;;14.00;52.40;;;;;;5101609;28;20056;-74
2021/03/12 01:13:16;;;;;;;3.58;1.88;;;13.90;52.70;;;;;;5103983;28;20068;-73
2021/03/12 01:15:42;;;;;;;1.55;1.45;;;14.00;52.40;;;;;;5103772;28;20028;-74
2021/03/12 01:18:10;;;;;;;5.30;2.00;;;13.80;52.90;;;;;;5089768;28;20023;-74
2021/03/12 01:20:38;;;;;;;7.07;2.38;;;13.80;53.50;;;;;;5099776;28;20030;-74
2021/03/12 01:23:06;;;;;;;4.40;2.22;;;13.60;54.20;;;;;;5099254;28;20400;-74
2021/03/12 01:25:42;;;;;;;4.95;1.73;;;13.80;53.50;;;;;;5103492;28;20470;-74
2021/03/12 01:28:09;;;;;;;3.53;1.98;;;13.70;54.00;;;;;;5098892;28;20024;-74
2021/03/12 01:30:43;;;;;;;3.47;1.60;;;13.60;54.10;;;;;;5103505;28;20031;-74
2021/03/12 01:33:10;;;;;;;3.33;1.45;;;13.50;54.30;;;;;;5101569;28;20028;-75
2021/03/12 01:35:37;;;;;;;6.35;2.22;;;13.30;55.00;;;;;;5103355;28;20063;-74
2021/03/12 01:38:04;;;;;;;3.55;2.03;;;13.40;54.80;;;;;;5103967;28;20016;-74
2021/03/12 01:40:32;;;;;;;7.88;1.90;;;13.40;54.40;;;;;;5105208;28;20020;-74
2021/03/12 01:43:01;;;;;;;3.78;1.80;;;13.30;54.20;;;;;;5103757;28;20503;-74
2021/03/12 01:45:49;;;;;;;6.63;1.42;;;13.30;54.20;;;;;;5103214;28;20024;-74
2021/03/12 01:48:21;;;;;;;2.22;2.00;;;13.20;54.40;;;;;;5103740;28;20024;-75
2021/03/12 01:51:08;;;;;;;4.53;1.65;;;13.30;53.40;;;;;;5096566;28;20024;-74
2021/03/12 01:53:35;;;;;;;3.67;1.73;;;13.30;52.70;;;;;;5101446;28;20044;-74
2021/03/12 01:56:03;;;;;;;2.33;1.77;;;13.20;52.90;;;;;;5102213;28;20035;-74
2021/03/12 01:58:30;;;;;;;11.18;2.20;;;13.10;53.10;;;;;;5101158;28;20027;-74
2021/03/12 02:01:17;;;;;;;7.85;1.55;;;13.00;53.60;;;;;;5098007;28;20040;-74
2021/03/12 02:03:43;;;;;;;4.43;1.92;;;12.80;54.00;;;;;;5098779;28;20194;-74
2021/03/12 02:06:10;;;;;;;3.88;2.20;;;12.70;54.00;;;;;;5097238;28;20024;-75
2021/03/12 02:08:37;;;;;;;6.47;2.42;;;12.70;54.00;;;;;;5098091;28;20080;-73
2021/03/12 02:11:03;;;;;;;8.25;2.13;;;12.80;53.20;;;;;;5096742;28;20044;-73
2021/03/12 02:14:01;;;;;;;4.10;2.10;;;12.70;53.50;;;;;;5094181;28;20032;-73
2021/03/12 02:16:51;;;;;;;6.47;1.98;;;12.50;54.30;;;;;;5096749;28;20486;-74
2021/03/12 02:19:26;;;;;;;5.45;2.15;;;12.50;54.40;;;;;;5098898;28;20031;-74
2021/03/12 02:21:55;;;;;;;4.72;2.50;;;12.60;54.20;;;;;;5095369;28;20021;-74
2021/03/12 02:24:41;;;;;;;3.50;2.13;;;12.50;54.80;;;;;;5068068;28;20024;-74
2021/03/12 02:27:11;;;;;;;5.47;2.28;;;12.50;54.40;;;;;;5094516;28;20024;-74
2021/03/12 02:29:59;;;;;;;6.32;2.28;;;12.40;54.90;;;;;;5097387;28;20016;-74
2021/03/12 02:32:40;;;;;;;7.05;2.35;;;12.30;55.30;;;;;;5097413;28;20016;-73
2021/03/12 02:35:15;;;;;;;6.72;2.95;;;12.30;55.20;;;;;;5098331;28;20028;-75
2021/03/12 02:37:44;;;;;;;8.85;2.50;;;12.30;55.40;;;;;;5088059;28;20073;-74
2021/03/12 02:40:12;;;;;;;8.60;2.90;;;12.20;55.40;;;;;;5091257;28;20036;-73
2021/03/12 02:42:41;;;;;;;4.30;2.17;;;12.20;55.60;;;;;;5101437;28;20035;-74
2021/03/12 02:45:10;;;;;;;5.80;2.00;;;12.20;56.00;;;;;;5106247;28;20521;-75
2021/03/12 02:47:40;;;;;;;5.80;2.13;;;12.20;55.80;;;;;;5094860;28;20090;-74
2021/03/12 02:50:08;;;;;;;5.03;2.80;;;12.30;55.40;;;;;;5087189;28;20039;-75
2021/03/12 02:52:35;;;;;;;6.43;2.50;;;12.30;55.80;;;;;;5089384;28;20031;-74
2021/03/12 02:55:08;;;;;;;7.05;2.45;;;12.20;56.00;;;;;;5095650;28;20032;-75
2021/03/12 02:57:38;;;;;;;7.95;3.28;;;12.10;56.10;;;;;;5098316;28;20079;-74
2021/03/12 03:00:08;;;;;;;4.18;2.50;;;12.10;56.10;;;;;;5104865;28;20028;-74
2021/03/12 03:02:35;;;;;;;6.53;2.45;;;12.20;55.50;;;;;;5097557;28;20026;-74
2021/03/12 03:05:04;;;;;;;5.07;2.55;;;12.20;55.50;;;;;;5096498;28;20038;-74
2021/03/12 03:07:34;;;;;;;7.55;2.35;;;12.30;54.80;;;;;;5106408;27;20115;-74
2021/03/12 03:10:05;;;;;;;10.90;2.70;;;12.40;54.50;;;;;;5102867;28;20036;-75
2021/03/12 03:12:32;;;;;;;9.07;2.75;;;12.30;54.70;;;;;;5100526;28;20353;-74
2021/03/12 03:15:00;;;;;;;6.32;2.38;;;12.10;55.30;;;;;;5099988;28;20055;-72
2021/03/12 03:17:34;;;;;;;4.82;2.88;;;12.00;55.20;;;;;;5103956;28;20024;-76
2021/03/12 03:20:02;;;;;;;5.43;2.55;;;12.10;55.00;;;;;;5101451;28;20027;-74
2021/03/12 03:22:35;;;;;;;6.85;2.65;;;12.20;54.30;;;;;;5099574;28;20106;-75
2021/03/12 03:25:02;;;;;;;2.95;1.90;;;12.30;53.80;;;;;;5098551;28;20450;-74
2021/03/12 03:27:29;;;;;;;6.60;2.30;;;12.30;53.90;;;;;;5103875;28;20442;-74
2021/03/12 03:29:55;;;;;;;5.90;2.60;;;12.20;54.50;;;;;;5087210;28;20048;-73
2021/03/12 03:32:23;;;;;;;4.68;2.10;;;12.10;54.60;;;;;;5103461;28;20390;-75
2021/03/12 03:34:51;;;;;;;6.63;2.60;;;12.10;54.50;;;;;;5093667;28;20473;-73
2021/03/12 03:37:20;;;;;;;5.95;2.22;;;12.20;54.30;;;;;;5101680;28;20071;-74
2021/03/12 03:39:47;;;;;;;7.47;2.10;;;12.10;54.60;;;;;;5101111;28;20024;-74
2021/03/12 03:42:16;;;;;;;7.47;2.38;;;12.00;54.70;;;;;;5102729;28;20024;-74
2021/03/12 03:44:45;;;;;;;7.47;2.50;;;12.00;54.80;;;;;;5090788;28;20027;-74
2021/03/12 03:47:13;;;;;;;7.35;2.38;;;11.90;55.40;;;;;;5103196;28;20505;-75
2021/03/12 03:49:42;;;;;;;4.45;2.28;;;11.80;55.00;;;;;;5104031;28;20047;-74
2021/03/12 03:52:09;;;;;;;9.32;3.85;;;11.90;55.10;;;;;;5099289;28;20028;-74
2021/03/12 03:54:37;;;;;;;8.45;2.95;;;12.00;54.50;;;;;;5103486;28;20417;-73
2021/03/12 03:57:05;;;;;;;9.63;2.55;;;12.00;54.60;;;;;;5104811;28;20024;-75
2021/03/12 03:59:33;;;;;;;7.65;2.92;;;12.00;54.10;;;;;;5095161;28;20393;-75
2021/03/12 04:02:02;;;;;;;5.07;2.60;;;12.10;53.90;;;;;;5102199;28;20019;-75
2021/03/12 04:04:31;;;;;;;7.07;2.45;;;12.10;54.00;;;;;;5101468;28;20435;-75
2021/03/12 04:06:58;;;;;;;7.25;2.50;;;12.00;54.00;;;;;;5097928;28;20012;-75
2021/03/12 04:09:24;;;;;;;7.70;2.80;;;12.00;54.20;;;;;;5101787;28;20042;-74
2021/03/12 04:11:51;;;;;;;4.95;2.20;;;12.00;53.80;;;;;;5100161;28;20016;-74
2021/03/12 04:14:18;;;;;;;8.57;2.63;;;11.90;53.80;;;;;;5099067;28;20492;-74
2021/03/12 04:16:45;;;;;;;4.82;2.17;;;11.80;54.00;;;;;;5099016;28;20135;-75
2021/03/12 04:19:11;;;;;;;6.50;1.90;;;11.80;54.60;;;;;;5097603;28;20073;-74
2021/03/12 04:21:38;;;;;;;12.90;3.15;;;11.70;54.80;;;;;;5100710;28;20093;-75
2021/03/12 04:24:06;;;;;;;4.15;2.22;;;11.90;55.00;;;;;;5102673;28;20142;-74
2021/03/12 04:26:33;;;;;;;7.88;2.53;;;11.90;54.90;;;;;;5102119;28;20115;-75
2021/03/12 04:29:00;;;;;;;5.25;2.35;;;11.90;55.10;;;;;;5083981;28;20159;-75
2021/03/12 04:31:27;;;;;;;3.55;1.90;;;11.90;55.20;;;;;;5096147;28;20028;-75
2021/03/12 04:33:54;;;;;;;8.52;2.13;;;11.90;55.20;;;;;;5087424;28;20059;-75
2021/03/12 04:36:21;;;;;;;7.95;2.80;;;11.90;55.50;;;;;;5096409;28;20050;-75
2021/03/12 04:38:48;;;;;;;7.85;2.50;;;11.90;55.50;;;;;;5092499;28;20034;-75
2021/03/12 04:41:16;;;;;;;6.88;2.25;;;12.00;55.70;;;;;;5091164;28;20339;-77
2021/03/12 04:43:44;;;;;;;5.50;2.03;;;11.80;55.60;;;;;;5089598;28;20439;-73
2021/03/12 04:46:14;;;;;;;5.63;2.20;;;11.90;56.10;;;;;;5097416;28;20078;-74
2021/03/12 04:48:42;;;;;;;10.15;3.17;;;11.80;56.20;;;;;;5097273;28;20355;-74
2021/03/12 04:51:12;;;;;;;8.40;2.67;;;11.90;55.90;;;;;;5100696;28;20028;-75
2021/03/12 04:53:40;;;;;;;8.68;3.92;;;11.90;56.10;;;;;;5100340;28;20335;-74
2021/03/12 04:56:07;;;;;;;6.68;2.38;;;11.80;56.90;;;;;;5097844;28;20024;-74
2021/03/12 04:58:36;;;;;;;9.07;2.97;;;11.80;56.20;;;;;;5098511;28;20032;-74
2021/03/12 05:01:09;;;;;;;6.68;3.60;;;11.70;57.20;;;;;;5100229;28;20024;-74
2021/03/12 05:03:37;;;;;;;7.68;3.17;;;11.60;57.50;;;;;;5091992;28;20023;-74
2021/03/12 05:06:06;;;;;;;4.95;2.40;;;11.60;58.00;;;;;;5098775;28;20023;-73
2021/03/12 05:08:34;;;;;;;12.60;3.55;;;11.70;56.90;;;;;;5089253;28;20024;-74
2021/03/12 05:11:02;;;;;;;6.22;2.60;;;11.70;56.90;;;;;;5104551;28;20022;-73
2021/03/12 05:13:28;;;;;;;13.40;3.55;;;11.70;57.80;;;;;;5091547;28;20032;-74
2021/03/12 05:15:55;;;;;;;8.85;2.47;;;11.70;57.90;;;;;;5093741;28;20024;-73
2021/03/12 05:18:22;;;;;;;6.80;2.97;;;11.70;57.80;;;;;;5089246;28;20020;-73
2021/03/12 05:20:49;;;;;;;7.68;3.03;;;11.60;57.90;;;;;;5079318;28;20378;-72
2021/03/12 05:23:17;;;;;;;8.77;2.80;;;11.60;58.10;;;;;;5093029;28;20028;-73
2021/03/12 05:25:44;;;;;;;9.98;3.08;;;11.60;58.40;;;;;;5101450;28;20116;-73
2021/03/12 05:28:11;;;;;;;10.25;2.50;;;11.60;57.60;;;;;;5097729;28;20057;-75
2021/03/12 05:30:37;;;;;;;10.55;2.97;;;11.50;58.40;;;;;;5103115;28;20102;-74
2021/03/12 05:33:05;;;;;;;13.05;2.75;;;11.60;57.50;;;;;;5099067;28;20039;-75
2021/03/12 05:35:32;;;;;;;9.93;2.45;;;11.70;57.80;;;;;;5093139;28;20063;-75
2021/03/12 05:37:59;;;;;;;9.13;2.85;;;11.60;57.20;;;;;;5098098;28;20032;-73
2021/03/12 05:40:26;;;;;;;9.45;2.22;;;11.60;57.20;;;;;;5101839;28;20023;-74
2021/03/12 05:42:54;;;;;;;10.32;3.10;;;11.60;58.00;;;;;;5097841;28;20032;-74
2021/03/12 05:45:21;;;;;;;7.90;2.72;;;11.50;58.00;;;;;;5099043;28;20027;-74
2021/03/12 05:47:48;;;;;;;4.32;1.98;;;11.40;58.80;;;;;;5101924;28;20028;-73
2021/03/12 05:50:16;;;;;;;3.67;1.85;;;11.20;59.50;;;;;;5099938;28;20024;-75
2021/03/12 05:52:46;;;;;;;10.18;6.05;;;11.10;59.70;;;;;;5101453;28;20107;-74
2021/03/12 05:55:15;;;;;;;18.65;8.68;;;10.90;61.50;;;;;;5098910;28;20046;-73
2021/03/12 05:57:42;;;;;;;14.02;8.00;;;11.00;61.60;;;;;;5089310;28;20039;-73
2021/03/12 06:00:10;;;;;;;15.68;8.35;;;11.00;61.10;;;;;;5090366;28;20023;-73
2021/03/12 06:02:38;;;;;;;9.73;5.82;;;10.90;61.40;;;;;;5093006;28;20354;-73
2021/03/12 06:05:11;;;;;;;11.73;5.45;;;10.90;62.20;;;;;;5093283;28;20050;-74
2021/03/12 06:07:38;;;;;;;11.13;7.15;;;10.90;61.50;;;;;;5098429;28;20027;-73
2021/03/12 06:10:09;;;;;;;8.38;2.97;;;10.80;61.70;;;;;;5098843;28;20089;-73
2021/03/12 06:12:36;;;;;;;9.05;3.35;;;11.10;59.70;;;;;;5094458;28;20046;-73
2021/03/12 06:15:06;;;;;;;5.05;2.70;;;11.10;60.10;;;;;;5094569;28;20024;-74
2021/03/12 06:17:45;;;;;;;12.15;4.50;;;11.10;59.60;;;;;;5095465;28;20051;-74
2021/03/12 06:20:16;;;;;;;4.22;3.10;;;11.10;58.90;;;;;;5097278;28;20020;-73
2021/03/12 06:22:50;;;;;;;15.35;4.28;;;11.10;59.70;;;;;;5098108;28;20024;-73
2021/03/12 06:25:19;;;;;;;6.50;3.10;;;11.30;59.70;;;;;;5100285;28;20049;-73
2021/03/12 06:27:46;;;;;;;7.00;3.00;;;11.10;59.90;;;;;;5098540;28;20496;-75
2021/03/12 06:30:14;;;;;;;7.70;3.88;;;10.90;61.60;;;;;;5096480;28;20513;-75
2021/03/12 06:32:49;;;;;;;6.78;3.38;;;10.90;61.60;;;;;;5096403;28;20028;-75
2021/03/12 06:35:26;;;;;;;12.52;3.45;;;11.00;60.50;;;;;;5100246;28;20530;-73
2021/03/12 06:37:53;;;;;;;8.80;4.15;;;11.10;59.50;;;;;;5095806;28;20110;-73
2021/03/12 06:40:26;;;;;;;7.15;3.20;;;11.00;60.70;;;;;;5099655;28;20040;-73
2021/03/12 06:43:25;;;;;;;8.10;3.42;;;11.00;61.00;;;;;;5099789;28;20024;-74
2021/03/12 06:45:57;;;;;;;8.10;4.05;;;10.90;60.80;;;;;;5090093;28;20036;-73
2021/03/12 06:48:33;;;;;;;13.20;3.45;;;10.90;59.90;;;;;;5102354;28;20071;-72
2021/03/12 06:51:06;;;;;;;14.57;6.20;;;11.00;60.50;;;;;;5094569;28;20040;-74
2021/03/12 06:53:34;;;;;;;8.40;3.53;;;11.00;60.00;;;;;;5097286;28;20024;-74
2021/03/12 06:56:06;;;;;;;6.72;2.70;;;11.00;60.70;;;;;;5098221;28;20023;-74
2021/03/12 06:58:33;;;;;;;11.60;3.50;;;10.90;61.20;;;;;;5093589;28;20068;-74
2021/03/12 07:01:00;;;;;;;4.05;2.72;;;10.90;60.90;;;;;;5079717;28;20052;-74
2021/03/12 07:03:29;;;;;;;16.05;4.05;;;10.90;61.50;;;;;;5095813;28;20504;-73
2021/03/12 07:06:10;;;;;;;6.13;2.33;;;10.90;59.80;;;;;;5098700;28;20047;-74
2021/03/12 07:08:41;;;;;;;6.28;2.25;;;10.90;61.40;;;;;;5100010;28;20024;-74
2021/03/12 07:11:23;;;;;;;8.43;2.77;;;10.80;61.30;;;;;;5100884;28;20023;-74
2021/03/12 07:13:52;;;;;;;9.40;3.05;;;10.80;61.00;;;;;;5099001;28;20027;-74
2021/03/12 07:16:19;;;;;;;8.25;3.22;;;10.70;61.00;;;;;;5100360;28;20023;-74
2021/03/12 07:18:46;;;;;;;6.68;2.50;;;10.70;62.00;;;;;;5103241;28;20115;-73
2021/03/12 07:21:14;;;;;;;4.93;2.90;;;10.60;61.60;;;;;;5095422;28;20020;-73
2021/03/12 07:23:43;;;;;;;13.85;4.57;;;10.60;61.80;;;;;;5095907;28;20045;-74
2021/03/12 07:26:14;;;;;;;10.85;3.47;;;10.60;61.90;;;;;;5086743;28;20020;-74
2021/03/12 07:28:42;;;;;;;10.10;3.70;;;10.50;61.60;;;;;;5098789;28;20045;-73
2021/03/12 07:31:14;;;;;;;9.10;3.95;;;10.40;61.00;;;;;;5091701;28;20028;-74
2021/03/12 07:33:52;;;;;;;8.77;3.50;;;10.40;61.30;;;;;;5103656;28;20393;-74
2021/03/12 07:36:24;;;;;;;8.15;3.10;;;10.40;61.60;;;;;;5100500;28;20401;-74
2021/03/12 07:38:52;;;;;;;10.68;3.70;;;10.20;62.20;;;;;;5103539;28;20036;-74
2021/03/12 07:41:19;;;;;;;11.27;4.72;;;10.20;62.10;;;;;;5104016;28;20039;-74
2021/03/12 07:43:47;;;;;;;9.13;4.10;;;10.10;62.00;;;;;;5103217;28;20023;-74
2021/03/12 07:46:15;;;;;;;9.75;5.45;;;10.10;61.30;;;;;;5097038;28;20085;-74
2021/03/12 07:48:41;;;;;;;9.63;3.38;;;10.00;61.80;;;;;;5095791;28;20050;-74
2021/03/12 07:51:13;;;;;;;11.60;4.55;;;10.00;61.90;;;;;;5096540;28;20119;-73
2021/03/12 07:53:47;;;;;;;14.70;3.90;;;9.90;62.30;;;;;;5095121;28;20353;-75
2021/03/12 07:56:15;;;;;;;9.35;3.88;;;9.90;62.20;;;;;;5102247;28;20153;-74
2021/03/12 07:59:01;;;;;;;10.75;3.88;;;9.90;62.30;;;;;;5099717;28;20039;-74
2021/03/12 08:01:45;;;;;;;14.23;4.07;;;9.90;62.30;;;;;;5094041;28;20027;-74
2021/03/12 08:04:28;;;;;;;10.30;2.95;;;9.90;62.60;;;;;;5094706;28;20043;-74
2021/03/12 08:06:54;;;;;;;13.80;3.40;;;9.80;62.60;;;;;;5094736;28;20016;-73
2021/03/12 08:09:37;;;;;;;18.00;3.60;;;9.90;61.50;;;;;;5100054;28;20036;-73
2021/03/12 08:12:04;;;;;;;15.35;3.63;;;9.80;62.40;;;;;;5104224;28;20456;-74
2021/03/12 08:14:32;;;;;;;9.65;3.22;;;9.80;63.80;;;;;;5099735;28;20046;-74
2021/03/12 08:16:58;;;;;;;15.90;4.03;;;9.70;63.50;;;;;;5102515;28;20082;-73
2021/03/12 08:19:35;;;;;;;8.88;3.95;;;9.70;63.20;;;;;;5093240;28;20130;-73
2021/03/12 08:22:22;;;;;;;12.07;4.10;;;9.70;63.30;;;;;;5099493;28;20157;-74
2021/03/12 08:24:52;;;;;;;8.93;3.13;;;9.70;63.30;;;;;;5096224;28;20051;-75
2021/03/12 08:27:48;;;;;;;14.82;4.57;;;9.70;63.30;;;;;;5100017;28;20028;-75
2021/03/12 08:30:37;;;;;;;17.15;5.07;;;9.60;62.40;;;;;;5095900;28;20454;-73
2021/03/12 08:33:09;;;;;;;17.30;4.20;;;9.60;61.40;;;;;;5089380;28;20466;-73
2021/03/12 08:35:42;;;;;;;10.07;4.22;;;9.70;61.50;;;;;;5099974;28;20510;-74
2021/03/12 08:38:11;;;;;;;21.25;4.60;;;9.70;62.90;;;;;;5105076;28;20028;-73
2021/03/12 08:40:42;;;;;;;14.13;3.50;;;9.80;63.70;;;;;;5101549;28;20445;-73
2021/03/12 08:43:16;;;;;;;13.70;4.50;;;9.80;63.30;;;;;;5098252;28;20035;-74
2021/03/12 08:45:49;;;;;;;21.58;4.38;;;9.80;62.20;;;;;;5099597;28;20028;-74
2021/03/12 08:48:17;;;;;;;20.42;5.45;;;9.90;63.10;;;;;;5105293;28;20051;-73
2021/03/12 08:50:57;;;;;;;17.60;4.28;;;10.00;63.20;;;;;;5100628;28;20023;-74
2021/03/12 08:53:29;;;;;;;15.30;4.60;;;10.00;65.80;;;;;;5100764;28;20023;-74
2021/03/12 08:55:57;;;;;;;19.92;4.38;;;10.10;65.80;;;;;;5100417;28;20468;-73
2021/03/12 08:58:27;;;;;;;17.83;4.75;;;10.20;65.00;;;;;;5098203;28;20028;-74
2021/03/12 09:00:56;;;;;;;29.05;5.13;;;10.20;62.90;;;;;;5100959;28;20473;-74
2021/03/12 09:03:27;;;;;;;15.25;4.18;;;10.30;62.40;;;;;;5099168;28;20453;-74
2021/03/12 09:06:01;;;;;;;16.25;4.50;;;10.20;61.80;;;;;;5094136;28;20070;-74
2021/03/12 09:08:29;;;;;;;17.42;4.60;;;10.20;61.80;;;;;;5103935;28;20090;-73
2021/03/12 09:10:56;;;;;;;21.52;4.43;;;10.10;62.00;;;;;;5100878;28;20032;-75
2021/03/12 09:13:26;;;;;;;14.82;4.43;;;10.00;62.20;;;;;;5104623;28;20100;-74
2021/03/12 09:15:53;;;;;;;16.42;4.90;;;9.90;63.30;;;;;;5102852;28;20100;-73
2021/03/12 09:18:21;;;;;;;15.45;4.28;;;9.80;62.90;;;;;;5099824;28;20050;-74
2021/03/12 09:21:00;;;;;;;9.50;4.30;;;9.70;62.50;;;;;;5096676;28;20134;-73
2021/03/12 09:23:43;;;;;;;14.00;4.88;;;9.60;63.50;;;;;;5101262;28;20119;-73
2021/03/12 09:26:16;;;;;;;29.90;6.13;;;9.60;62.40;;;;;;5097463;28;20020;-73
2021/03/12 09:28:45;;;;;;;17.70;5.30;;;9.50;62.60;;;;;;5103310;28;20392;-74
2021/03/12 09:31:14;;;;;;;25.40;4.20;;;9.50;63.50;;;;;;5092224;28;20452;-73
2021/03/12 09:33:46;;;;;;;25.77;4.85;;;9.50;63.70;;;;;;5099006;28;20027;-74
2021/03/12 09:36:37;;;;;;;24.50;4.60;;;9.50;63.80;;;;;;5101119;28;20027;-74
2021/03/12 09:39:13;;;;;;;21.27;5.55;;;9.40;64.00;;;;;;5103182;28;20071;-73
2021/03/12 09:41:42;;;;;;;16.90;4.28;;;9.30;64.40;;;;;;5097916;28;20460;-74
2021/03/12 09:44:14;;;;;;;25.42;4.38;;;9.30;64.10;;;;;;5099129;28;20429;-74
2021/03/12 09:46:43;;;;;;;25.30;5.15;;;9.20;64.40;;;;;;5102964;28;20094;-74
2021/03/12 09:49:36;;;;;;;23.63;5.63;;;9.10;64.70;;;;;;5094221;28;20134;-74
2021/03/12 09:52:08;;;;;;;24.08;5.25;;;9.20;64.70;;;;;;5101681;28;20080;-74
2021/03/12 09:54:35;;;;;;;25.17;5.22;;;9.20;65.40;;;;;;5099911;28;20061;-73
2021/03/12 09:57:02;;;;;;;19.10;5.97;;;9.20;65.20;;;;;;5102551;28;20107;-74
2021/03/12 09:59:36;;;;;;;22.27;5.03;;;9.30;65.20;;;;;;5103360;28;20028;-74
2021/03/12 10:02:05;;;;;;;21.70;5.07;;;9.30;65.00;;;;;;5098714;28;20007;-75
2021/03/12 10:04:40;;;;;;;24.83;5.30;;;9.30;65.60;;;;;;5100939;28;20020;-73
2021/03/12 10:07:08;;;;;;;20.00;4.50;;;9.30;64.90;;;;;;5100948;28;20449;-73
2021/03/12 10:09:43;;;;;;;21.98;5.25;;;9.10;65.30;;;;;;5096329;28;20128;-73
2021/03/12 10:12:17;;;;;;;17.05;4.20;;;9.00;67.10;;;;;;5098095;28;20024;-73
2021/03/12 10:14:45;;;;;;;20.92;4.55;;;8.90;66.20;;;;;;5102674;28;20473;-75
2021/03/12 10:17:13;;;;;;;23.80;5.15;;;8.90;65.60;;;;;;5097122;28;20020;-75
2021/03/12 10:20:02;;;;;;;12.73;5.03;;;8.90;66.20;;;;;;5099722;28;20020;-74
2021/03/12 10:22:41;;;;;;;12.75;3.88;;;8.80;66.10;;;;;;5097963;28;20034;-73
2021/03/12 10:25:11;;;;;;;28.52;5.28;;;8.70;65.90;;;;;;5097702;28;20073;-75
2021/03/12 10:27:50;;;;;;;29.73;6.60;;;8.70;65.10;;;;;;5101779;28;20028;-74
2021/03/12 10:30:25;;;;;;;18.17;5.70;;;8.80;64.70;;;;;;5100150;28;20051;-73
2021/03/12 10:32:54;;;;;;;22.02;5.00;;;8.80;65.30;;;;;;5101433;28;20107;-73
2021/03/12 10:35:36;;;;;;;26.02;5.22;;;8.70;65.60;;;;;;5099639;28;20031;-73
2021/03/12 10:38:14;;;;;;;36.70;6.32;;;8.70;65.10;;;;;;5099045;28;20034;-73
2021/03/12 10:40:42;;;;;;;13.70;4.72;;;8.60;65.30;;;;;;5098375;28;20016;-74
2021/03/12 10:43:15;;;;;;;11.65;3.33;;;8.60;67.00;;;;;;5101837;28;20013;-73
2021/03/12 10:46:02;;;;;;;12.80;4.10;;;8.50;67.00;;;;;;5095915;28;20124;-73
2021/03/12 10:48:39;;;;;;;24.98;6.32;;;8.50;67.10;;;;;;5102855;28;20060;-75
2021/03/12 10:51:06;;;;;;;12.07;3.90;;;8.50;67.10;;;;;;5098278;28;20020;-72
2021/03/12 10:53:47;;;;;;;9.02;3.25;;;8.50;67.20;;;;;;5100645;28;20044;-73
2021/03/12 10:56:14;;;;;;;11.45;3.83;;;8.50;67.00;;;;;;5102090;28;20019;-73
2021/03/12 10:58:41;;;;;;;12.20;3.47;;;8.50;67.00;;;;;;5099016;28;20115;-74
2021/03/12 11:01:22;;;;;;;14.05;4.18;;;8.40;67.50;;;;;;5095863;28;20119;-74
2021/03/12 11:03:50;;;;;;;13.85;4.22;;;8.40;66.60;;;;;;5102951;28;20035;-74
2021/03/12 11:06:19;;;;;;;9.18;3.50;;;8.40;67.10;;;;;;5103304;28;20020;-74
2021/03/12 11:08:46;;;;;;;8.70;3.72;;;8.40;67.10;;;;;;5101514;28;20055;-73
2021/03/12 11:11:17;;;;;;;9.00;4.18;;;8.30;67.00;;;;;;5105038;28;20038;-74
2021/03/12 11:13:43;;;;;;;11.30;3.85;;;8.30;67.00;;;;;;5100413;28;20411;-73
2021/03/12 11:16:10;;;;;;;18.15;4.38;;;8.30;66.70;;;;;;5104881;28;20020;-74
2021/03/12 11:18:37;;;;;;;21.25;4.65;;;8.30;66.60;;;;;;5104498;28;20360;-73
2021/03/12 11:21:06;;;;;;;21.70;4.50;;;8.30;64.70;;;;;;5100984;28;20020;-73
2021/03/12 11:23:33;;;;;;;34.38;6.35;;;8.50;65.80;;;;;;5106401;28;20031;-73
2021/03/12 11:26:00;;;;;;;10.50;4.45;;;8.50;66.50;;;;;;5106064;28;20012;-73
2021/03/12 11:28:27;;;;;;;13.68;3.45;;;8.50;66.50;;;;;;5105437;28;20036;-73
2021/03/12 11:30:57;;;;;;;12.68;3.63;;;8.50;66.80;;;;;;5102190;28;20028;-74
2021/03/12 11:33:25;;;;;;;10.30;2.97;;;8.60;65.90;;;;;;5103069;28;20032;-73
2021/03/12 11:35:53;;;;;;;8.77;3.35;;;8.60;67.40;;;;;;5102972;28;20038;-75
2021/03/12 11:38:20;;;;;;;14.05;3.42;;;8.50;67.70;;;;;;5102591;28;20028;-73
2021/03/12 11:40:47;;;;;;;8.82;3.75;;;8.60;67.10;;;;;;5102900;28;20027;-75
2021/03/12 11:43:13;;;;;;;11.60;4.13;;;8.50;67.20;;;;;;5104494;28;20024;-74
2021/03/12 11:45:40;;;;;;;9.13;3.88;;;8.50;66.50;;;;;;5102200;28;20035;-74
2021/03/12 11:48:07;;;;;;;9.23;4.78;;;8.50;64.80;;;;;;5105048;28;20100;-74
2021/03/12 11:50:36;;;;;;;21.45;4.60;;;8.60;65.80;;;;;;5102590;28;20058;-74
2021/03/12 11:53:03;;;;;;;23.52;5.95;;;8.70;65.50;;;;;;5104788;28;20035;-74
2021/03/12 11:55:30;;;;;;;20.65;4.78;;;8.70;65.60;;;;;;5104888;28;20038;-74
2021/03/12 11:57:56;;;;;;;20.08;4.85;;;8.70;66.60;;;;;;5100574;28;20023;-74
2021/03/12 12:00:23;;;;;;;15.77;4.65;;;8.70;66.40;;;;;;5103477;28;20028;-74
2021/03/12 12:02:50;;;;;;;23.10;4.78;;;8.80;66.50;;;;;;5104629;28;20021;-72
2021/03/12 12:05:18;;;;;;;15.15;4.72;;;8.70;65.90;;;;;;5105068;28;20035;-73
2021/03/12 12:07:44;;;;;;;16.30;5.15;;;8.70;66.40;;;;;;5105822;28;20030;-74
2021/03/12 12:10:13;;;;;;;15.52;4.20;;;8.70;66.20;;;;;;5102554;28;20027;-75
2021/03/12 12:12:47;;;;;;;18.27;5.30;;;8.80;66.60;;;;;;5105371;28;20035;-74
2021/03/12 12:15:16;;;;;;;23.30;5.35;;;8.70;67.00;;;;;;5103580;28;20023;-74
2021/03/12 12:17:44;;;;;;;14.20;4.13;;;8.70;67.20;;;;;;5104478;28;20027;-74
2021/03/12 12:20:12;;;;;;;15.25;4.45;;;8.60;65.90;;;;;;5105784;28;20011;-73
2021/03/12 12:22:38;;;;;;;21.63;4.70;;;8.60;66.00;;;;;;5103299;28;20020;-73
2021/03/12 12:25:05;;;;;;;15.45;4.47;;;8.60;66.30;;;;;;5105293;28;20110;-73
2021/03/12 12:27:31;;;;;;;14.80;4.47;;;8.50;66.00;;;;;;5102517;28;20028;-74
2021/03/12 12:29:58;;;;;;;20.80;5.10;;;8.60;67.50;;;;;;5104292;28;20102;-73
2021/03/12 12:32:24;;;;;;;20.02;4.72;;;8.50;66.50;;;;;;5104004;28;20465;-73
2021/03/12 12:34:51;;;;;;;18.15;5.18;;;8.60;67.80;;;;;;5105295;28;20024;-73
2021/03/12 12:37:17;;;;;;;15.48;4.63;;;8.60;67.40;;;;;;5104361;28;20454;-74
2021/03/12 12:39:43;;;;;;;14.10;4.63;;;8.60;66.90;;;;;;5103909;28;20023;-74
2021/03/12 12:42:10;;;;;;;18.25;4.13;;;8.70;68.00;;;;;;5103540;28;20027;-74
2021/03/12 12:44:36;;;;;;;14.88;5.00;;;8.60;67.70;;;;;;5105156;28;20024;-74
2021/03/12 12:47:04;;;;;;;19.88;4.80;;;8.60;67.00;;;;;;5101585;28;20043;-74
2021/03/12 12:49:30;;;;;;;21.20;4.95;;;8.50;67.50;;;;;;5102926;28;20070;-74
2021/03/12 12:51:57;;;;;;;16.23;5.80;;;8.50;67.90;;;;;;5104502;28;20023;-74
2021/03/12 12:54:23;;;;;;;21.70;5.15;;;8.40;67.40;;;;;;5101761;28;20076;-75
2021/03/12 12:56:50;;;;;;;17.38;4.97;;;8.40;67.70;;;;;;5103725;28;20536;-74
2021/03/12 12:59:16;;;;;;;21.33;4.18;;;8.40;67.30;;;;;;5103304;28;20036;-74